This is the latest recevied weather packets stored in our database for station/object AA4OM-2. If no packets are shown the sender has not sent any weather packets the latest 10 day(s).
| Time | Temp. | Humidity | Pressure | Rain* | Wind** | Luminosity | Snow |
|---|---|---|---|---|---|---|---|
| 1777776986 | 6.11° C | 93% | 1020.9 hPa | 0 mm | - | 0 W/m² | - |
| 1777776685 | 6.11° C | 93% | 1021.1 hPa | 0 mm | - | 0 W/m² | - |
| 1777776381 | 6.11° C | 93% | 1020.8 hPa | 0 mm | - | 0 W/m² | - |
| 1777776078 | 6.11° C | 92% | 1020.9 hPa | 0 mm | - | 0 W/m² | - |
| 1777775775 | 6.67° C | 92% | 1020.8 hPa | 0 mm | - | 0 W/m² | - |
| 1777775472 | 6.67° C | 91% | 1020.8 hPa | 0 mm | - | 0 W/m² | - |
| 1777775168 | 6.67° C | 91% | 1020.9 hPa | 0 mm | - | 0 W/m² | - |
| 1777774863 | 6.67° C | 90% | 1020.7 hPa | 0 mm | - | 0 W/m² | - |
| 1777774560 | 7.22° C | 89% | 1020.5 hPa | 0 mm | - | 0 W/m² | - |
| 1777773954 | 7.22° C | 88% | 1020.4 hPa | 0 mm | - | 0 W/m² | - |
| 1777773650 | 7.22° C | 87% | 1020.4 hPa | 0 mm | - | 0 W/m² | - |
| 1777773347 | 7.78° C | 86% | 1020.1 hPa | 0 mm | - | 0 W/m² | - |
| 1777772439 | 8.33° C | 83% | 1020.3 hPa | 0 mm | - | 0 W/m² | - |
| 1777771227 | 9.44° C | 79% | 1019.8 hPa | 0 mm | - | 0 W/m² | - |
| 1777770621 | 10° C | 74% | 1019.8 hPa | 0 mm | - | 0 W/m² | - |
| 1777770317 | 10.56° C | 72% | 1019.9 hPa | 0 mm | - | 0 W/m² | - |
| 1777770015 | 10.56° C | 70% | 1019.8 hPa | 0 mm | - | 0 W/m² | - |
| 1777767894 | 12.78° C | 62% | 1019.4 hPa | 0 mm | - | 13 W/m² | - |
| 1777766681 | 13.33° C | 59% | 1019.1 hPa | 0 mm | - | 28 W/m² | - |
| 1777766075 | 13.33° C | 58% | 1019.1 hPa | 0 mm | - | 35 W/m² | - |
| 1777765469 | 13.89° C | 56% | 1018.8 hPa | 0 mm | - | 42 W/m² | - |
| 1777764255 | 14.44° C | 54% | 1018.7 hPa | 0 mm | - | 92 W/m² | - |
| 1777761523 | 15.56° C | 50% | 1018.5 hPa | 0 mm | - | 218 W/m² | - |
| 1777761221 | 15.56° C | 50% | 1018.4 hPa | 0 mm | - | 236 W/m² | - |
| 1777760913 | 15.56° C | 50% | 1018.3 hPa | 0 mm | - | 255 W/m² | - |
* Rain latest hour (hover to see other rain measurements)
** Current wind speed in m/s (hover to see current wind gust speed)